Time;durP1;ratioP1;P1;durP2;ratioP2;P2;SDS_P1;SDS_P2;PMS_P1;PMS_P2;Temp;Humidity;BMP_temperature;BMP_pressure;BME280_temperature;BME280_humidity;BME280_pressure;Samples;Min_cycle;Max_cycle;Signal;HPM_P1;HPM_P2
2024/03/24 00:01:43;;;;;;;4.72;1.45;;;;;;;1.74;100.00;96607.25;5057296;28;20044;-64
2024/03/24 00:04:08;;;;;;;5.78;1.40;;;;;;;1.81;100.00;96614.19;5065561;28;20032;-64
2024/03/24 00:06:34;;;;;;;4.20;1.63;;;;;;;1.78;100.00;96605.81;5054325;28;20068;-63
2024/03/24 00:08:59;;;;;;;2.20;1.05;;;;;;;1.72;100.00;96604.81;5057322;28;20637;-63
2024/03/24 00:11:25;;;;;;;5.13;1.33;;;;;;;1.76;100.00;96602.50;5062739;28;20546;-64
2024/03/24 00:13:50;;;;;;;2.60;1.15;;;;;;;1.77;100.00;96596.16;5059116;28;20076;-63
2024/03/24 00:16:16;;;;;;;2.35;1.10;;;;;;;1.80;100.00;96601.88;5051884;28;20044;-63
2024/03/24 00:18:41;;;;;;;2.28;1.08;;;;;;;1.73;100.00;96590.41;5059611;28;20135;-63
2024/03/24 00:21:07;;;;;;;5.13;1.23;;;;;;;1.75;100.00;96591.03;5062991;28;20056;-63
2024/03/24 00:23:33;;;;;;;1.60;0.90;;;;;;;1.83;100.00;96579.28;5063446;28;20468;-62
2024/03/24 00:25:59;;;;;;;3.40;1.05;;;;;;;1.74;100.00;96577.91;5064334;28;20116;-63
2024/03/24 00:28:24;;;;;;;4.20;1.20;;;;;;;1.73;100.00;96571.72;5062290;28;20396;-63
2024/03/24 00:30:50;;;;;;;2.38;0.98;;;;;;;1.77;100.00;96567.59;5058007;28;20047;-63
2024/03/24 00:33:16;;;;;;;3.47;0.98;;;;;;;1.80;100.00;96561.84;5041134;28;20064;-64
2024/03/24 00:35:42;;;;;;;2.80;1.05;;;;;;;1.86;100.00;96565.50;5060954;28;20051;-64
2024/03/24 00:38:07;;;;;;;3.20;1.00;;;;;;;1.90;100.00;96564.03;5061494;28;20044;-63
2024/03/24 00:40:33;;;;;;;1.35;0.80;;;;;;;1.89;100.00;96553.56;5057638;28;20538;-64
2024/03/24 00:42:59;;;;;;;2.42;1.02;;;;;;;1.92;100.00;96556.63;5067729;28;20454;-64
2024/03/24 00:45:25;;;;;;;2.38;1.00;;;;;;;1.82;100.00;96550.94;5059238;28;20504;-63
2024/03/24 00:47:51;;;;;;;5.72;1.15;;;;;;;1.79;100.00;96560.22;5060219;28;20520;-64
2024/03/24 00:50:18;;;;;;;4.35;1.30;;;;;;;1.73;100.00;96550.38;5069178;28;20045;-62
2024/03/24 00:52:43;;;;;;;3.55;1.50;;;;;;;1.69;100.00;96551.84;5071934;28;20091;-65
2024/03/24 00:55:09;;;;;;;2.33;1.05;;;;;;;1.80;100.00;96542.31;5069640;28;20442;-64
2024/03/24 00:57:35;;;;;;;3.85;0.80;;;;;;;1.93;100.00;96547.59;5067716;28;20087;-63
2024/03/24 01:00:02;;;;;;;1.38;0.80;;;;;;;1.85;100.00;96539.03;5062833;28;20042;-64
2024/03/24 01:02:27;;;;;;;2.70;1.00;;;;;;;1.84;100.00;96538.19;5066561;28;20424;-65
2024/03/24 01:04:53;;;;;;;1.58;0.80;;;;;;;1.77;100.00;96543.59;5061109;28;20048;-63
2024/03/24 01:07:19;;;;;;;1.83;1.00;;;;;;;1.86;100.00;96544.16;5064321;28;20071;-64
2024/03/24 01:09:44;;;;;;;2.55;0.95;;;;;;;1.82;100.00;96548.28;5060862;28;20041;-64
2024/03/24 01:12:10;;;;;;;3.38;1.08;;;;;;;1.76;100.00;96543.78;5063733;28;20059;-64
2024/03/24 01:14:35;;;;;;;1.95;1.10;;;;;;;1.79;100.00;96543.38;5060579;28;20045;-64
2024/03/24 01:17:01;;;;;;;3.35;1.17;;;;;;;1.76;100.00;96546.47;5064772;28;20123;-62
2024/03/24 01:19:27;;;;;;;2.95;1.00;;;;;;;1.77;100.00;96540.91;5057918;28;20045;-64
2024/03/24 01:21:52;;;;;;;1.95;0.90;;;;;;;1.84;100.00;96542.72;5064552;28;20048;-63
2024/03/24 01:24:18;;;;;;;1.60;0.90;;;;;;;1.95;100.00;96542.00;5063913;28;20048;-64
2024/03/24 01:26:43;;;;;;;1.48;0.80;;;;;;;2.13;100.00;96537.78;5061245;28;20080;-63
2024/03/24 01:29:10;;;;;;;0.90;0.77;;;;;;;2.20;100.00;96535.88;5066911;28;20036;-63
2024/03/24 01:31:35;;;;;;;1.52;0.57;;;;;;;2.10;100.00;96525.66;5061656;28;20036;-63
2024/03/24 01:34:01;;;;;;;2.38;0.50;;;;;;;2.18;100.00;96522.72;5057153;28;20115;-64
2024/03/24 01:36:27;;;;;;;1.77;0.47;;;;;;;2.26;100.00;96531.50;5056886;28;20044;-63
2024/03/24 01:38:52;;;;;;;1.67;0.50;;;;;;;2.30;100.00;96527.34;5063917;28;20070;-64
2024/03/24 01:41:18;;;;;;;0.93;0.50;;;;;;;2.30;100.00;96541.53;5066212;28;20268;-63
2024/03/24 01:43:43;;;;;;;1.50;0.65;;;;;;;2.40;100.00;96529.53;5067281;28;20082;-63
2024/03/24 01:46:09;;;;;;;0.98;0.63;;;;;;;2.48;100.00;96518.56;5062234;28;20047;-64
2024/03/24 01:48:35;;;;;;;0.77;0.65;;;;;;;2.44;100.00;96536.06;5061082;28;20530;-63
2024/03/24 01:51:08;;;;;;;1.75;0.57;;;;;;;2.44;100.00;96526.19;5063540;28;20532;-63
2024/03/24 01:53:36;;;;;;;0.63;0.40;;;;;;;2.39;100.00;96528.69;5055045;28;20048;-62
2024/03/24 01:56:03;;;;;;;1.40;0.60;;;;;;;2.39;100.00;96527.91;5070942;28;20032;-62
2024/03/24 01:58:34;;;;;;;2.35;0.70;;;;;;;2.41;100.00;96513.28;5050780;28;20163;-63
2024/03/24 02:01:00;;;;;;;2.85;0.50;;;;;;;2.33;100.00;96518.91;5062743;28;20032;-63
2024/03/24 02:03:30;;;;;;;2.35;0.68;;;;;;;2.34;100.00;96517.88;5062330;28;20044;-63
2024/03/24 02:05:56;;;;;;;0.50;0.50;;;;;;;2.24;100.00;96510.34;5060702;28;20037;-64
2024/03/24 02:08:22;;;;;;;1.70;0.88;;;;;;;2.24;100.00;96504.22;5058634;28;20040;-64
2024/03/24 02:10:48;;;;;;;2.60;0.63;;;;;;;2.17;100.00;96512.25;5057519;28;20774;-64
2024/03/24 02:13:13;;;;;;;2.13;0.50;;;;;;;2.18;100.00;96512.03;5058200;28;20611;-64
2024/03/24 02:15:39;;;;;;;2.85;0.85;;;;;;;2.23;100.00;96514.06;5049962;28;20534;-63
2024/03/24 02:18:04;;;;;;;1.95;0.60;;;;;;;2.24;100.00;96512.22;5062893;28;20614;-62
2024/03/24 02:20:30;;;;;;;0.70;0.43;;;;;;;2.29;100.00;96509.69;5047723;28;20029;-64
2024/03/24 02:22:55;;;;;;;1.38;0.50;;;;;;;2.23;100.00;96502.56;5054400;28;20625;-64
2024/03/24 02:25:21;;;;;;;1.35;0.60;;;;;;;2.25;100.00;96495.16;5051206;28;20127;-63
2024/03/24 02:27:47;;;;;;;1.60;0.45;;;;;;;2.12;100.00;96491.56;5054622;28;20044;-63
2024/03/24 02:30:12;;;;;;;0.75;0.43;;;;;;;2.18;100.00;96492.53;5051382;28;20066;-64
2024/03/24 02:32:44;;;;;;;0.73;0.50;;;;;;;2.23;100.00;96489.19;5049364;28;20041;-64
2024/03/24 02:35:11;;;;;;;1.73;0.80;;;;;;;2.27;100.00;96501.06;5050772;28;20657;-64
2024/03/24 02:37:37;;;;;;;0.75;0.45;;;;;;;2.18;100.00;96493.34;5055384;28;20045;-63
2024/03/24 02:40:05;;;;;;;2.15;0.60;;;;;;;2.20;100.00;96488.63;5055840;28;20404;-63
2024/03/24 02:42:31;;;;;;;4.40;0.60;;;;;;;2.17;100.00;96491.72;5051754;28;20052;-64
2024/03/24 02:44:57;;;;;;;2.35;0.73;;;;;;;2.17;100.00;96485.53;5051432;28;20647;-62
2024/03/24 02:47:23;;;;;;;2.67;0.55;;;;;;;2.27;100.00;96493.88;5051516;28;20044;-62
2024/03/24 02:49:49;;;;;;;3.13;0.70;;;;;;;2.02;100.00;96491.22;5054498;28;20119;-64
2024/03/24 02:52:15;;;;;;;0.57;0.47;;;;;;;1.65;100.00;96483.91;5055177;28;20067;-63
2024/03/24 02:54:40;;;;;;;1.48;0.70;;;;;;;1.45;100.00;96481.41;5054145;28;20040;-63
2024/03/24 02:57:06;;;;;;;1.25;0.73;;;;;;;1.51;100.00;96483.22;5058127;28;20048;-64
2024/03/24 02:59:32;;;;;;;2.05;0.60;;;;;;;1.41;100.00;96481.81;5050732;28;20049;-63
2024/03/24 03:01:58;;;;;;;1.00;0.70;;;;;;;1.25;100.00;96479.69;5053160;28;20396;-64
2024/03/24 03:04:24;;;;;;;1.75;0.80;;;;;;;1.12;100.00;96477.91;5050599;28;20047;-62
2024/03/24 03:06:50;;;;;;;3.20;0.88;;;;;;;1.11;100.00;96476.28;5058773;28;20036;-63
2024/03/24 03:09:17;;;;;;;1.65;0.80;;;;;;;1.10;100.00;96471.97;5051578;28;20035;-65
2024/03/24 03:11:43;;;;;;;1.67;1.05;;;;;;;1.13;100.00;96476.88;5053342;28;20470;-63
2024/03/24 03:14:09;;;;;;;1.67;0.80;;;;;;;1.20;100.00;96468.81;5054885;28;20054;-63
2024/03/24 03:16:35;;;;;;;2.15;0.90;;;;;;;1.21;100.00;96470.47;5052774;28;20193;-63
2024/03/24 03:19:01;;;;;;;1.90;0.70;;;;;;;1.20;100.00;96477.66;5056666;28;20105;-63
2024/03/24 03:21:27;;;;;;;2.10;0.80;;;;;;;1.19;100.00;96470.69;5057586;28;20480;-63
2024/03/24 03:23:53;;;;;;;2.33;0.75;;;;;;;1.25;100.00;96463.69;5054415;28;20045;-64
2024/03/24 03:26:20;;;;;;;4.53;1.10;;;;;;;1.26;100.00;96462.66;5057638;28;20040;-64
2024/03/24 03:28:48;;;;;;;3.08;0.90;;;;;;;1.33;100.00;96462.59;5050945;28;20048;-64
2024/03/24 03:31:14;;;;;;;2.50;0.95;;;;;;;1.42;100.00;96461.31;5054321;28;20045;-64
2024/03/24 03:33:40;;;;;;;2.63;0.93;;;;;;;1.38;100.00;96462.78;5047024;28;20076;-63
2024/03/24 03:36:05;;;;;;;3.38;1.02;;;;;;;1.50;100.00;96465.56;5054220;28;20119;-64
2024/03/24 03:38:31;;;;;;;3.60;1.20;;;;;;;1.52;100.00;96463.50;5049529;28;20660;-63
2024/03/24 03:41:00;;;;;;;3.60;1.10;;;;;;;1.56;100.00;96460.16;5052006;28;20040;-65
2024/03/24 03:43:25;;;;;;;1.67;0.90;;;;;;;1.65;100.00;96459.91;5056069;28;20036;-65
2024/03/24 03:45:52;;;;;;;1.90;0.80;;;;;;;1.73;100.00;96456.16;5053502;28;20127;-64
2024/03/24 03:48:18;;;;;;;2.33;1.30;;;;;;;1.83;100.00;96455.69;5055401;28;20033;-63
2024/03/24 03:50:45;;;;;;;2.15;0.90;;;;;;;1.86;100.00;96448.03;5052359;28;20405;-64
2024/03/24 03:53:17;;;;;;;3.38;0.77;;;;;;;1.83;100.00;96445.81;5052266;28;20508;-63
2024/03/24 03:55:47;;;;;;;1.98;1.10;;;;;;;1.84;100.00;96451.97;5054836;28;20045;-63
2024/03/24 03:58:13;;;;;;;2.05;0.50;;;;;;;1.80;100.00;96444.41;5058019;28;20058;-64
2024/03/24 04:00:39;;;;;;;1.80;0.75;;;;;;;1.78;100.00;96443.81;5054204;28;20045;-63
2024/03/24 04:03:04;;;;;;;3.38;0.60;;;;;;;1.83;100.00;96445.00;5055427;28;20040;-64
2024/03/24 04:05:30;;;;;;;1.65;0.90;;;;;;;1.77;100.00;96444.81;5055959;28;20086;-64
2024/03/24 04:07:56;;;;;;;1.77;0.60;;;;;;;1.79;100.00;96439.28;5053099;28;20045;-63
2024/03/24 04:10:22;;;;;;;2.10;0.80;;;;;;;1.88;100.00;96440.63;5059584;28;20036;-64
2024/03/24 04:12:47;;;;;;;1.58;0.68;;;;;;;1.97;100.00;96449.19;5055111;28;20052;-63
2024/03/24 04:15:13;;;;;;;2.50;0.80;;;;;;;1.92;100.00;96449.81;5049564;28;20068;-63
2024/03/24 04:17:38;;;;;;;2.38;0.70;;;;;;;1.88;100.00;96450.50;5055292;28;20113;-63
2024/03/24 04:20:05;;;;;;;3.63;0.70;;;;;;;1.91;100.00;96456.22;5065279;28;20071;-63
2024/03/24 04:22:30;;;;;;;1.05;0.55;;;;;;;1.94;100.00;96461.13;5059506;28;20082;-64
2024/03/24 04:24:56;;;;;;;0.80;0.60;;;;;;;1.93;100.00;96467.50;5060433;28;20041;-66
2024/03/24 04:27:22;;;;;;;1.27;0.63;;;;;;;1.95;100.00;96475.25;5059328;28;20090;-63
2024/03/24 04:29:47;;;;;;;1.42;0.70;;;;;;;1.80;100.00;96478.25;5064190;28;20048;-63
2024/03/24 04:32:13;;;;;;;4.32;0.77;;;;;;;1.52;100.00;96472.31;5055151;28;20037;-62
2024/03/24 04:34:38;;;;;;;1.55;0.80;;;;;;;1.36;100.00;96478.19;5059637;28;20695;-63
2024/03/24 04:37:05;;;;;;;1.75;0.77;;;;;;;1.40;100.00;96474.84;5061963;28;20082;-63
2024/03/24 04:39:32;;;;;;;2.10;0.70;;;;;;;1.39;100.00;96461.72;5062693;28;20071;-63
2024/03/24 04:41:58;;;;;;;1.50;0.80;;;;;;;1.33;100.00;96452.78;5057384;28;20040;-63
2024/03/24 04:44:23;;;;;;;1.20;0.82;;;;;;;1.34;100.00;96443.72;5064628;28;20400;-63
2024/03/24 04:46:49;;;;;;;3.08;0.73;;;;;;;1.40;100.00;96447.38;5059433;28;20564;-64
2024/03/24 04:49:15;;;;;;;1.25;0.60;;;;;;;1.38;100.00;96434.25;5064347;28;20427;-63
2024/03/24 04:51:40;;;;;;;2.00;0.68;;;;;;;1.31;100.00;96444.16;5061872;28;20059;-64
2024/03/24 04:54:06;;;;;;;2.05;0.90;;;;;;;1.30;100.00;96443.31;5061803;28;20072;-63
2024/03/24 04:56:34;;;;;;;3.33;1.00;;;;;;;1.20;100.00;96447.50;5058450;28;20136;-64
2024/03/24 04:59:00;;;;;;;2.05;0.70;;;;;;;1.20;100.00;96453.66;5039582;28;20531;-63
2024/03/24 05:01:25;;;;;;;0.77;0.55;;;;;;;1.24;100.00;96457.53;5059798;28;20150;-62
2024/03/24 05:03:51;;;;;;;1.38;0.80;;;;;;;1.29;100.00;96463.03;5054876;28;20083;-63
2024/03/24 05:06:18;;;;;;;2.38;0.95;;;;;;;1.28;100.00;96456.06;5058842;28;20033;-64
2024/03/24 05:08:45;;;;;;;1.88;0.80;;;;;;;1.29;100.00;96460.38;5060085;28;20064;-65
2024/03/24 05:11:11;;;;;;;1.80;0.90;;;;;;;1.30;100.00;96455.84;5056662;28;20530;-64
2024/03/24 05:13:40;;;;;;;2.97;0.90;;;;;;;1.34;100.00;96462.41;5058650;28;20056;-64
2024/03/24 05:16:07;;;;;;;4.85;0.98;;;;;;;1.41;100.00;96465.81;5056095;28;20044;-63
2024/03/24 05:18:36;;;;;;;2.58;1.05;;;;;;;1.45;100.00;96470.72;5048728;28;20037;-63
2024/03/24 05:21:04;;;;;;;2.03;1.10;;;;;;;1.37;100.00;96469.16;5053711;28;20321;-63
2024/03/24 05:23:30;;;;;;;3.08;1.10;;;;;;;1.41;100.00;96475.69;5059091;28;20112;-65
2024/03/24 05:25:55;;;;;;;3.88;1.00;;;;;;;1.48;100.00;96473.81;5052399;28;20683;-64
2024/03/24 05:28:21;;;;;;;4.60;1.30;;;;;;;1.37;100.00;96469.94;5061323;28;20085;-64
2024/03/24 05:30:49;;;;;;;3.33;1.20;;;;;;;1.36;100.00;96464.84;5051888;28;20033;-64
2024/03/24 05:33:16;;;;;;;2.72;0.93;;;;;;;1.42;100.00;96466.66;5059068;28;20040;-63
2024/03/24 05:35:42;;;;;;;2.20;1.15;;;;;;;1.55;100.00;96468.41;5056338;28;20066;-62
2024/03/24 05:38:08;;;;;;;3.10;1.20;;;;;;;1.62;100.00;96477.16;5043287;28;20659;-64
2024/03/24 05:40:34;;;;;;;4.78;1.50;;;;;;;1.71;100.00;96468.91;5062460;28;20040;-64
2024/03/24 05:42:59;;;;;;;4.35;1.10;;;;;;;1.66;100.00;96475.69;5037342;28;20053;-64
2024/03/24 05:45:25;;;;;;;1.50;0.75;;;;;;;1.79;100.00;96468.63;5059801;28;20036;-63
2024/03/24 05:47:51;;;;;;;3.22;0.95;;;;;;;1.88;100.00;96466.50;5059536;28;20478;-64
2024/03/24 05:50:16;;;;;;;1.90;1.00;;;;;;;2.00;100.00;96474.63;5063541;28;20032;-63
2024/03/24 05:52:42;;;;;;;4.05;1.02;;;;;;;2.04;100.00;96467.81;5058385;28;20050;-62
2024/03/24 05:55:09;;;;;;;3.20;1.30;;;;;;;2.02;100.00;96467.19;5057806;28;20491;-64
2024/03/24 05:57:36;;;;;;;2.35;1.15;;;;;;;1.95;100.00;96473.41;5050781;28;20048;-64
2024/03/24 06:00:04;;;;;;;2.83;1.13;;;;;;;1.93;100.00;96478.19;5062951;28;20039;-64
2024/03/24 06:02:36;;;;;;;2.03;1.00;;;;;;;1.88;100.00;96478.00;5042989;28;20097;-63
2024/03/24 06:05:02;;;;;;;3.45;1.77;;;;;;;1.88;100.00;96479.88;5062178;28;20070;-64
2024/03/24 06:07:29;;;;;;;3.42;1.23;;;;;;;1.93;100.00;96478.19;5055959;28;20115;-64
2024/03/24 06:09:55;;;;;;;3.47;1.10;;;;;;;2.03;100.00;96474.19;5054186;28;20048;-63
2024/03/24 06:12:21;;;;;;;4.10;1.60;;;;;;;2.18;100.00;96487.19;5056349;28;20053;-64
2024/03/24 06:14:47;;;;;;;2.97;1.10;;;;;;;2.26;100.00;96481.56;5060268;28;20041;-64
2024/03/24 06:17:13;;;;;;;3.15;1.20;;;;;;;2.29;100.00;96480.31;5063003;28;20129;-64
2024/03/24 06:19:40;;;;;;;3.08;1.00;;;;;;;2.24;100.00;96480.16;5058120;28;20503;-63
2024/03/24 06:22:06;;;;;;;4.28;1.33;;;;;;;2.14;100.00;96486.81;5058647;28;20040;-63
2024/03/24 06:24:32;;;;;;;3.42;1.10;;;;;;;2.20;100.00;96496.63;5054174;28;20047;-64
2024/03/24 06:26:59;;;;;;;2.90;1.23;;;;;;;2.37;100.00;96487.22;5044862;28;20255;-63
2024/03/24 06:29:24;;;;;;;3.20;1.60;;;;;;;2.56;100.00;96498.75;5054442;28;20721;-63
2024/03/24 06:31:50;;;;;;;2.03;1.02;;;;;;;2.79;100.00;96495.41;5053557;28;20033;-65
2024/03/24 06:34:16;;;;;;;2.65;1.15;;;;;;;2.84;100.00;96500.88;5062918;28;20117;-64
2024/03/24 06:36:42;;;;;;;3.13;1.40;;;;;;;2.93;100.00;96503.25;5057722;28;20041;-63
2024/03/24 06:39:11;;;;;;;3.95;1.20;;;;;;;2.88;100.00;96495.09;5060051;28;20040;-63
2024/03/24 06:41:41;;;;;;;2.53;1.23;;;;;;;2.91;100.00;96500.81;5057529;28;20073;-64
2024/03/24 06:44:13;;;;;;;3.30;1.13;;;;;;;2.93;100.00;96497.91;5061553;28;20693;-63
2024/03/24 06:46:45;;;;;;;1.70;1.00;;;;;;;2.88;100.00;96497.78;5051515;28;20349;-64
2024/03/24 06:49:14;;;;;;;1.55;1.00;;;;;;;2.76;100.00;96495.84;5055877;28;20044;-63
2024/03/24 06:51:39;;;;;;;1.55;0.90;;;;;;;2.81;100.00;96511.22;5053698;28;20119;-63
2024/03/24 06:54:05;;;;;;;4.65;1.58;;;;;;;2.81;100.00;96497.84;5050683;28;20529;-63
2024/03/24 06:56:31;;;;;;;2.92;1.30;;;;;;;2.79;100.00;96499.91;5058229;28;20234;-64
2024/03/24 06:58:56;;;;;;;4.60;1.50;;;;;;;2.70;100.00;96508.22;5047438;28;20043;-64
2024/03/24 07:01:22;;;;;;;2.97;1.20;;;;;;;2.64;100.00;96509.13;5055382;28;20043;-64
2024/03/24 07:03:47;;;;;;;4.35;2.03;;;;;;;2.70;100.00;96505.56;5060359;28;20073;-63
2024/03/24 07:06:13;;;;;;;2.85;1.10;;;;;;;2.79;100.00;96499.91;5057299;28;20115;-63
2024/03/24 07:08:40;;;;;;;3.20;1.20;;;;;;;2.94;100.00;96499.53;5051588;28;20457;-63
2024/03/24 07:11:07;;;;;;;4.82;1.45;;;;;;;2.95;100.00;96520.72;5049347;28;20042;-64
2024/03/24 07:13:33;;;;;;;5.20;1.30;;;;;;;3.01;100.00;96505.63;5052711;28;20041;-65
2024/03/24 07:15:58;;;;;;;3.97;1.85;;;;;;;3.03;100.00;96494.72;5049002;28;20069;-64
2024/03/24 07:18:24;;;;;;;4.47;1.05;;;;;;;3.10;100.00;96484.75;5057512;28;20453;-63
2024/03/24 07:21:00;;;;;;;2.70;1.10;;;;;;;3.15;100.00;96471.50;5053042;28;20037;-63
2024/03/24 07:23:26;;;;;;;3.63;1.45;;;;;;;3.19;100.00;96475.38;5051336;28;20036;-64
2024/03/24 07:25:52;;;;;;;3.70;1.40;;;;;;;3.27;100.00;96450.13;5055645;28;20452;-64
2024/03/24 07:28:18;;;;;;;3.83;1.30;;;;;;;3.41;100.00;96457.97;5048726;28;20045;-63
2024/03/24 07:30:44;;;;;;;2.72;1.52;;;;;;;3.56;100.00;96455.69;5053346;28;20041;-62
2024/03/24 07:33:11;;;;;;;1.52;1.05;;;;;;;3.75;100.00;96469.00;5059884;28;20043;-64
2024/03/24 07:35:37;;;;;;;2.50;0.85;;;;;;;3.88;100.00;96462.63;5047667;28;20041;-64
2024/03/24 07:38:02;;;;;;;3.65;1.02;;;;;;;4.11;100.00;96453.78;5057136;28;20508;-64
2024/03/24 07:40:28;;;;;;;2.83;1.17;;;;;;;4.08;100.00;96466.81;5056670;28;20032;-63
2024/03/24 07:42:54;;;;;;;2.92;1.00;;;;;;;4.22;100.00;96472.75;5060226;28;20052;-62
2024/03/24 07:45:19;;;;;;;3.10;0.80;;;;;;;4.49;100.00;96473.09;5055025;28;20059;-59
2024/03/24 07:47:45;;;;;;;2.63;0.73;;;;;;;4.47;100.00;96474.38;5045704;28;20059;-61
2024/03/24 07:50:11;;;;;;;1.30;0.75;;;;;;;4.32;100.00;96473.00;5063837;28;20040;-60
2024/03/24 07:52:36;;;;;;;1.58;1.27;;;;;;;4.35;100.00;96463.66;5061088;28;20072;-62
2024/03/24 07:55:02;;;;;;;1.20;0.68;;;;;;;4.52;100.00;96482.53;5056962;28;21697;-65
2024/03/24 07:57:27;;;;;;;3.58;1.17;;;;;;;4.73;100.00;96475.75;5059558;28;20041;-63
2024/03/24 07:59:53;;;;;;;2.83;1.58;;;;;;;4.94;100.00;96471.59;5051878;28;20056;-64
2024/03/24 08:02:19;;;;;;;1.02;0.68;;;;;;;4.85;100.00;96475.72;5058777;28;20040;-63
2024/03/24 08:04:44;;;;;;;4.05;1.20;;;;;;;4.82;100.00;96476.19;5059166;28;20456;-63
2024/03/24 08:07:10;;;;;;;1.88;0.70;;;;;;;4.72;100.00;96473.28;5053683;28;20044;-64
2024/03/24 08:09:36;;;;;;;1.27;0.50;;;;;;;4.72;100.00;96473.28;5056586;28;20045;-64
2024/03/24 08:12:01;;;;;;;0.75;0.60;;;;;;;4.62;100.00;96484.63;5054205;28;20688;-63
2024/03/24 08:14:27;;;;;;;1.33;0.50;;;;;;;4.60;100.00;96484.06;5055656;28;20036;-61
2024/03/24 08:16:57;;;;;;;3.95;0.80;;;;;;;4.41;100.00;96493.03;5051044;28;20554;-63
2024/03/24 08:19:24;;;;;;;2.20;0.68;;;;;;;4.27;100.00;96503.16;5057508;28;20045;-62
2024/03/24 08:21:50;;;;;;;3.60;0.70;;;;;;;4.47;100.00;96499.31;5057645;28;20098;-63
2024/03/24 08:24:17;;;;;;;1.42;0.50;;;;;;;4.34;100.00;96488.81;5060301;28;20114;-64
2024/03/24 08:26:43;;;;;;;1.58;0.85;;;;;;;4.28;100.00;96512.03;5052943;28;20049;-63
2024/03/24 08:29:09;;;;;;;3.13;1.00;;;;;;;4.28;100.00;96494.06;5059556;28;20061;-62
2024/03/24 08:31:35;;;;;;;1.45;0.93;;;;;;;4.37;100.00;96497.22;5057695;28;20037;-64
2024/03/24 08:34:00;;;;;;;3.50;0.80;;;;;;;4.43;100.00;96498.16;5057703;28;20059;-62
2024/03/24 08:36:26;;;;;;;1.10;0.65;;;;;;;4.72;100.00;96508.94;5051417;28;20101;-63
2024/03/24 08:38:52;;;;;;;1.73;0.88;;;;;;;4.49;100.00;96518.66;5060638;28;20530;-62
2024/03/24 08:41:17;;;;;;;2.03;0.80;;;;;;;4.39;100.00;96511.19;5056293;28;20533;-61
2024/03/24 08:43:43;;;;;;;2.53;0.93;;;;;;;4.53;100.00;96500.22;5062751;28;20083;-63
2024/03/24 08:46:09;;;;;;;2.47;0.90;;;;;;;4.58;100.00;96512.94;5059243;28;20707;-62
2024/03/24 08:48:35;;;;;;;1.70;0.93;;;;;;;4.54;100.00;96516.09;5048659;28;20057;-64
2024/03/24 08:51:00;;;;;;;2.88;1.10;;;;;;;4.63;100.00;96515.72;5056408;28;20037;-62
2024/03/24 08:53:26;;;;;;;1.77;0.93;;;;;;;4.82;100.00;96525.28;5056628;28;20043;-63
2024/03/24 08:55:51;;;;;;;6.78;1.20;;;;;;;4.75;100.00;96519.22;5061737;28;20033;-62
2024/03/24 08:58:17;;;;;;;3.83;1.00;;;;;;;4.63;100.00;96518.41;5063449;28;20479;-64
2024/03/24 09:00:45;;;;;;;4.18;1.30;;;;;;;4.52;100.00;96512.00;5058238;28;20037;-63
2024/03/24 09:03:11;;;;;;;3.30;1.38;;;;;;;4.57;100.00;96514.81;5057587;28;20048;-64
2024/03/24 09:05:36;;;;;;;3.15;1.23;;;;;;;4.78;100.00;96521.44;5057888;28;20044;-64
2024/03/24 09:08:02;;;;;;;4.20;1.40;;;;;;;5.16;100.00;96507.72;5048779;28;20059;-64
2024/03/24 09:10:28;;;;;;;2.40;1.08;;;;;;;5.42;100.00;96510.88;5058190;28;20123;-62
2024/03/24 09:12:53;;;;;;;6.85;1.30;;;;;;;5.55;100.00;96524.00;5060939;28;20739;-64
2024/03/24 09:15:19;;;;;;;3.28;1.10;;;;;;;5.48;100.00;96512.59;5055788;28;20094;-63
2024/03/24 09:17:45;;;;;;;1.40;0.80;;;;;;;5.58;100.00;96512.81;5057371;28;20549;-63
2024/03/24 09:20:11;;;;;;;4.75;1.30;;;;;;;5.58;100.00;96512.81;5058658;28;20056;-64
2024/03/24 09:22:36;;;;;;;3.47;1.20;;;;;;;5.52;100.00;96520.97;5049545;28;20049;-63
2024/03/24 09:25:02;;;;;;;5.13;1.55;;;;;;;5.37;100.00;96522.31;5060200;28;20083;-64
2024/03/24 09:27:28;;;;;;;4.47;1.23;;;;;;;5.27;100.00;96525.63;5054020;28;20071;-62
2024/03/24 09:29:53;;;;;;;4.93;1.27;;;;;;;5.26;100.00;96533.91;5053349;28;20048;-64
2024/03/24 09:32:19;;;;;;;3.88;1.27;;;;;;;5.18;100.00;96525.19;5053802;28;20049;-63
2024/03/24 09:34:45;;;;;;;3.55;1.23;;;;;;;4.87;100.00;96543.34;5056935;28;20116;-63
2024/03/24 09:37:12;;;;;;;4.07;1.33;;;;;;;4.85;100.00;96533.91;5055660;28;20048;-62
2024/03/24 09:39:37;;;;;;;3.95;1.20;;;;;;;4.93;100.00;96533.53;5050249;28;20049;-64
2024/03/24 09:42:05;;;;;;;3.38;1.08;;;;;;;5.07;100.00;96523.34;5059803;28;20083;-64
2024/03/24 09:44:32;;;;;;;4.43;1.08;;;;;;;5.28;100.00;96521.91;5060742;28;20090;-62
2024/03/24 09:46:59;;;;;;;2.92;1.27;;;;;;;5.33;100.00;96537.28;5041697;28;20463;-63
2024/03/24 09:49:26;;;;;;;5.03;1.38;;;;;;;5.32;100.00;96498.91;5051303;28;20052;-62
2024/03/24 09:51:53;;;;;;;5.40;1.25;;;;;;;5.72;100.00;96499.06;5053264;28;20052;-64
2024/03/24 09:54:19;;;;;;;4.72;1.30;;;;;;;6.22;100.00;96508.22;5067325;28;20598;-62
2024/03/24 09:56:45;;;;;;;2.40;1.02;;;;;;;6.29;100.00;96512.63;5047374;28;20057;-62
2024/03/24 09:59:10;;;;;;;2.25;0.90;;;;;;;6.15;100.00;96522.91;5062288;28;20115;-63
2024/03/24 10:01:40;;;;;;;4.40;1.00;;;;;;;5.77;100.00;96522.50;5048724;28;20041;-62
2024/03/24 10:04:06;;;;;;;3.42;1.42;;;;;;;5.67;100.00;96520.44;5067430;28;20048;-62
2024/03/24 10:06:32;;;;;;;3.42;1.23;;;;;;;5.58;100.00;96511.97;5047843;28;20822;-63
2024/03/24 10:08:58;;;;;;;4.05;1.20;;;;;;;5.76;100.00;96512.81;5057448;28;20044;-63
2024/03/24 10:11:27;;;;;;;3.03;1.10;;;;;;;5.85;100.00;96501.44;5054960;28;20537;-64
2024/03/24 10:13:58;;;;;;;4.03;1.40;;;;;;;5.93;100.00;96499.41;5058810;28;20552;-64
2024/03/24 10:16:24;;;;;;;2.43;1.20;;;;;;;5.95;100.00;96486.53;5041205;28;20068;-64
2024/03/24 10:18:50;;;;;;;2.25;1.13;;;;;;;5.73;100.00;96498.81;5061968;28;20322;-64
2024/03/24 10:21:20;;;;;;;3.15;1.13;;;;;;;5.94;100.00;96495.66;5044804;28;20157;-63
2024/03/24 10:23:46;;;;;;;4.55;1.27;;;;;;;6.24;100.00;96495.34;5057881;28;20099;-62
2024/03/24 10:26:22;;;;;;;2.70;0.98;;;;;;;6.13;100.00;96516.94;5060083;28;20043;-63
2024/03/24 10:28:49;;;;;;;4.38;1.33;;;;;;;6.21;100.00;96509.28;5053337;28;20049;-64
2024/03/24 10:31:15;;;;;;;5.35;1.30;;;;;;;6.77;100.00;96521.09;5064630;28;20679;-62
2024/03/24 10:33:42;;;;;;;9.25;1.45;;;;;;;6.33;100.00;96492.25;5060112;28;20110;-63
2024/03/24 10:36:08;;;;;;;11.50;1.50;;;;;;;6.03;100.00;96496.91;5060752;28;20068;-62
2024/03/24 10:38:36;;;;;;;4.55;1.33;;;;;;;6.13;100.00;96490.88;5043486;28;20056;-62
2024/03/24 10:41:03;;;;;;;4.85;1.40;;;;;;;5.90;100.00;96489.16;5050190;28;20068;-63
2024/03/24 10:43:30;;;;;;;6.80;1.73;;;;;;;5.96;100.00;96472.03;5062406;28;20039;-62
2024/03/24 10:45:57;;;;;;;5.32;1.30;;;;;;;6.36;100.00;96489.06;5052098;28;20079;-61
2024/03/24 10:48:28;;;;;;;7.00;1.52;;;;;;;6.32;100.00;96469.94;5050727;28;20402;-63
2024/03/24 10:50:55;;;;;;;4.63;1.23;;;;;;;6.17;100.00;96475.06;5056632;28;20036;-61
2024/03/24 10:53:23;;;;;;;6.53;1.50;;;;;;;6.59;100.00;96474.59;5060647;28;20097;-63
2024/03/24 10:55:50;;;;;;;4.78;1.42;;;;;;;6.88;100.00;96477.13;5054458;28;20044;-62
2024/03/24 10:58:19;;;;;;;3.85;1.70;;;;;;;6.87;100.00;96467.44;5063760;28;20044;-60
2024/03/24 11:00:45;;;;;;;3.22;1.35;;;;;;;6.18;100.00;96469.47;5055748;28;20774;-61
2024/03/24 11:03:13;;;;;;;3.70;1.38;;;;;;;6.28;100.00;96465.28;5060012;28;20036;-63
2024/03/24 11:05:41;;;;;;;3.10;1.45;;;;;;;6.45;100.00;96474.13;5048336;28;20068;-63
2024/03/24 11:08:09;;;;;;;5.38;1.55;;;;;;;6.17;100.00;96486.66;5057189;28;20109;-64
2024/03/24 11:10:35;;;;;;;3.60;1.30;;;;;;;6.11;100.00;96488.44;5051284;28;20092;-64
2024/03/24 11:13:02;;;;;;;3.03;1.02;;;;;;;5.58;100.00;96495.88;5061672;28;20360;-63
2024/03/24 11:15:28;;;;;;;3.30;1.20;;;;;;;5.30;100.00;96492.94;5053690;28;20626;-63
2024/03/24 11:17:54;;;;;;;1.60;0.88;;;;;;;5.28;100.00;96494.25;5047358;28;20048;-63
2024/03/24 11:20:22;;;;;;;2.03;1.02;;;;;;;5.15;100.00;96484.59;5054299;28;20934;-63
2024/03/24 11:22:50;;;;;;;3.47;1.13;;;;;;;5.27;100.00;96484.56;5055251;28;20048;-63
2024/03/24 11:25:17;;;;;;;6.78;2.38;;;;;;;5.36;100.00;96474.25;5046552;28;20052;-63
2024/03/24 11:27:44;;;;;;;3.70;1.38;;;;;;;5.53;100.00;96487.72;5048982;28;20121;-63
2024/03/24 11:30:14;;;;;;;4.90;1.40;;;;;;;5.51;100.00;96465.66;5056562;28;20036;-64